Time;durP1;ratioP1;P1;durP2;ratioP2;P2;SDS_P1;SDS_P2;PMS_P1;PMS_P2;Temp;Humidity;BMP_temperature;BMP_pressure;BME280_temperature;BME280_humidity;BME280_pressure;Samples;Min_cycle;Max_cycle;Signal;HPM_P1;HPM_P2
2023/09/21 00:01:18;;;;;;;;;2.50;2.00;;;;;24.04;48.36;99549.56;4957911;28;45573;-53
2023/09/21 00:03:44;;;;;;;;;4.00;3.00;;;;;24.04;48.93;99552.19;4958113;28;45310;-58
2023/09/21 00:06:10;;;;;;;;;2.00;2.00;;;;;24.04;48.49;99546.91;4956850;28;45572;-56
2023/09/21 00:08:35;;;;;;;;;2.25;2.25;;;;;23.99;48.52;99543.84;4957555;28;53167;-56
2023/09/21 00:11:03;;;;;;;;;2.25;2.25;;;;;24.01;48.49;99544.56;4957748;28;45414;-58
2023/09/21 00:13:32;;;;;;;;;2.00;2.00;;;;;24.01;49.13;99539.25;4957877;28;45264;-59
2023/09/21 00:15:59;;;;;;;;;3.50;3.50;;;;;24.02;48.57;99543.59;4958118;28;45569;-59
2023/09/21 00:18:26;;;;;;;;;2.25;2.25;;;;;24.00;48.61;99538.41;4957750;28;46245;-57
2023/09/21 00:20:55;;;;;;;;;3.25;2.25;;;;;24.02;48.26;99535.66;4957955;28;45240;-58
2023/09/21 00:23:24;;;;;;;;;2.25;2.25;;;;;24.02;48.43;99540.94;4958025;28;45349;-56
2023/09/21 00:25:57;;;;;;;;;2.50;2.00;;;;;24.02;48.68;99530.34;4958054;28;45325;-58
2023/09/21 00:28:23;;;;;;;;;3.00;3.00;;;;;24.02;48.84;99520.59;4957783;28;47098;-57
2023/09/21 00:30:52;;;;;;;;;2.00;2.00;;;;;24.03;48.79;99524.91;4957782;28;45966;-58
2023/09/21 00:33:18;;;;;;;;;2.25;2.00;;;;;24.01;48.54;99518.09;4957410;28;45319;-59
2023/09/21 00:35:44;;;;;;;;;3.50;3.00;;;;;24.03;48.58;99524.09;4957598;28;45520;-57
2023/09/21 00:38:10;;;;;;;;;3.25;3.00;;;;;24.02;48.56;99520.59;4940075;28;47266;-57
2023/09/21 00:40:38;;;;;;;;;3.75;2.25;;;;;24.03;48.40;99519.63;4956372;28;45414;-58
2023/09/21 00:43:06;;;;;;;;;1.00;1.00;;;;;24.03;48.40;99510.84;4940153;28;45517;-58
2023/09/21 00:45:34;;;;;;;;;2.25;2.25;;;;;24.01;49.00;99505.69;4956500;28;45420;-57
2023/09/21 00:48:00;;;;;;;;;3.75;3.00;;;;;24.01;48.94;99515.44;4957303;28;46390;-58
2023/09/21 00:50:26;;;;;;;;;2.00;2.00;;;;;23.99;48.80;99515.56;4957394;28;45741;-57
2023/09/21 00:52:54;;;;;;;;;1.50;1.50;;;;;24.00;48.51;99522.53;4956465;28;45430;-57
2023/09/21 00:55:23;;;;;;;;;3.50;3.50;;;;;23.99;48.71;99523.50;4957548;28;45370;-54
2023/09/21 00:57:51;;;;;;;;;4.00;4.00;;;;;23.99;48.63;99510.28;4957079;28;47011;-58
2023/09/21 01:00:18;;;;;;;;;2.25;2.00;;;;;24.00;49.00;99517.25;4957169;28;45730;-58
2023/09/21 01:02:46;;;;;;;;;2.25;2.25;;;;;24.00;48.85;99511.94;4957259;28;45345;-59
2023/09/21 01:05:13;;;;;;;;;3.00;2.75;;;;;23.97;48.80;99506.97;4957402;28;45310;-56
2023/09/21 01:07:39;;;;;;;;;2.00;2.00;;;;;23.98;48.79;99502.47;4956970;28;46109;-57
2023/09/21 01:10:11;;;;;;;;;1.25;1.25;;;;;23.98;49.13;99500.66;4957077;28;45752;-55
2023/09/21 01:12:37;;;;;;;;;3.00;2.50;;;;;23.98;49.18;99508.59;4957019;28;45404;-58
2023/09/21 01:15:13;;;;;;;;;2.00;2.00;;;;;23.99;49.55;99514.75;4957317;28;45540;-57
2023/09/21 01:17:41;;;;;;;;;5.25;3.75;;;;;24.00;49.07;99511.13;4956866;28;46248;-56
2023/09/21 01:23:08;;;;;;;;;2.00;2.00;;;;;23.97;49.48;99508.75;4956912;28;45425;-56
2023/09/21 01:25:35;;;;;;;;;1.75;1.75;;;;;23.98;49.29;99507.78;4957209;28;45351;-55
2023/09/21 01:28:01;;;;;;;;;3.75;3.00;;;;;23.98;49.44;99499.84;4956734;28;46045;-55
2023/09/21 01:30:28;;;;;;;;;3.00;3.00;;;;;23.96;49.83;99502.63;4957265;28;45209;-56
2023/09/21 01:32:53;;;;;;;;;2.00;2.00;;;;;23.98;49.60;99502.47;4957304;28;45446;-59
2023/09/21 01:35:19;;;;;;;;;3.75;2.00;;;;;23.97;50.07;99506.97;4956818;28;45613;-55
2023/09/21 01:37:46;;;;;;;;;2.50;2.00;;;;;23.95;49.76;99495.66;4956738;28;46297;-56
2023/09/21 01:40:15;;;;;;;;;3.00;3.00;;;;;23.93;50.03;99493.09;4956725;28;45870;-55
2023/09/21 01:42:40;;;;;;;;;3.00;3.00;;;;;23.93;50.21;99484.34;4956725;28;45398;-57
2023/09/21 01:45:12;;;;;;;;;3.00;1.75;;;;;23.92;50.51;99494.09;4957084;28;45380;-55
2023/09/21 01:47:37;;;;;;;;;3.25;2.00;;;;;23.92;50.72;99488.78;4956427;28;46267;-56
2023/09/21 01:50:06;;;;;;;;;2.75;2.25;;;;;23.91;50.27;99494.22;4956605;28;45343;-56
2023/09/21 01:52:32;;;;;;;;;3.00;2.25;;;;;23.92;50.70;99487.97;4956587;28;45342;-58
2023/09/21 01:55:03;;;;;;;;;2.25;1.75;;;;;23.93;50.94;99489.66;4957221;28;45235;-55
2023/09/21 01:57:28;;;;;;;;;2.50;2.00;;;;;23.93;50.76;99490.47;4959399;28;47194;-55
2023/09/21 01:59:53;;;;;;;;;3.00;2.50;;;;;23.90;50.67;99474.88;4958596;28;45238;-57
2023/09/21 02:02:20;;;;;;;;;2.00;2.00;;;;;23.91;51.31;99465.13;4959307;28;59915;-57
2023/09/21 02:04:47;;;;;;;;;3.00;1.25;;;;;23.89;51.58;99472.38;4959987;28;45505;-56
2023/09/21 02:07:14;;;;;;;;;3.00;2.00;;;;;23.86;51.53;99462.09;4959566;28;46641;-58
2023/09/21 02:09:40;;;;;;;;;3.25;1.25;;;;;23.82;51.36;99455.38;4959666;28;45850;-57
2023/09/21 02:12:06;;;;;;;;;1.50;1.50;;;;;23.80;52.06;99450.25;4958571;28;45411;-61
2023/09/21 02:14:31;;;;;;;;;3.00;3.00;;;;;23.78;52.07;99437.13;4959870;28;45506;-56
2023/09/21 02:16:57;;;;;;;;;2.75;2.00;;;;;23.77;51.95;99440.75;4959685;28;46210;-57
2023/09/21 02:19:22;;;;;;;;;2.75;2.00;;;;;23.77;52.02;99439.94;4959223;28;53724;-56
2023/09/21 02:21:49;;;;;;;;;5.25;3.00;;;;;23.75;51.93;99426.88;4959658;28;45331;-55
2023/09/21 02:24:15;;;;;;;;;3.25;2.25;;;;;23.74;52.43;99433.13;4959574;28;45658;-55
2023/09/21 02:26:42;;;;;;;;;2.00;2.00;;;;;23.72;52.41;99427.13;4959087;28;54370;-56
2023/09/21 02:29:09;;;;;;;;;2.00;2.00;;;;;23.71;52.66;99427.25;4959285;28;45713;-56
2023/09/21 02:31:37;;;;;;;;;3.50;2.00;;;;;23.71;52.81;99424.59;4942022;28;45359;-55
2023/09/21 02:34:02;;;;;;;;;0.00;0.00;;;;;23.69;52.55;99414.19;4959565;28;45367;-54
2023/09/21 02:36:28;;;;;;;;;3.00;1.00;;;;;23.69;52.50;99411.53;4959294;28;46055;-53
2023/09/21 02:38:53;;;;;;;;;1.25;1.25;;;;;23.69;53.21;99419.47;4959240;28;45438;-50
2023/09/21 02:41:18;;;;;;;;;3.75;3.00;;;;;23.64;52.92;99405.84;4959540;28;45370;-56
2023/09/21 02:43:45;;;;;;;;;2.00;1.25;;;;;23.65;52.91;99404.84;4959439;28;45542;-54
2023/09/21 02:46:11;;;;;;;;;2.00;2.00;;;;;23.62;53.05;99395.38;4959039;28;47392;-52
2023/09/21 02:48:37;;;;;;;;;4.00;2.50;;;;;23.60;53.46;99389.41;4959136;28;45698;-53
2023/09/21 02:51:04;;;;;;;;;2.25;2.25;;;;;23.62;53.00;99391.91;4957950;28;45375;-51
2023/09/21 02:53:29;;;;;;;;;2.75;2.00;;;;;23.59;53.66;99386.91;4959564;28;45343;-54
2023/09/21 02:55:54;;;;;;;;;1.75;1.75;;;;;23.58;53.39;99385.22;4957245;28;58690;-54
2023/09/21 02:58:20;;;;;;;;;2.00;2.00;;;;;23.56;53.99;99380.09;4957892;28;45915;-57
2023/09/21 03:00:45;;;;;;;;;2.75;2.75;;;;;23.53;53.52;99366.31;4958600;28;51934;-57
2023/09/21 03:03:15;;;;;;;;;3.50;2.25;;;;;23.51;54.11;99368.28;4959136;28;45334;-55
2023/09/21 03:05:42;;;;;;;;;2.00;2.00;;;;;23.50;54.20;99374.53;4958770;28;47043;-59
2023/09/21 03:08:14;;;;;;;;;2.00;2.00;;;;;23.48;53.76;99369.38;4957720;28;45304;-58
2023/09/21 03:10:47;;;;;;;;;5.25;1.75;;;;;23.47;53.74;99373.81;4958987;28;45316;-59
2023/09/21 03:13:17;;;;;;;;;2.50;2.00;;;;;23.47;54.03;99367.72;4959189;28;45374;-55
2023/09/21 03:15:50;;;;;;;;;2.00;2.00;;;;;23.47;54.20;99363.25;4958500;28;46963;-56
2023/09/21 03:18:18;;;;;;;;;3.00;2.00;;;;;23.47;53.87;99360.59;4958608;28;45730;-57
2023/09/21 03:20:44;;;;;;;;;1.75;1.75;;;;;23.48;53.89;99369.38;4958702;28;45476;-57
2023/09/21 03:23:11;;;;;;;;;1.00;1.00;;;;;23.50;53.99;99374.53;4957554;28;45477;-55
2023/09/21 03:25:40;;;;;;;;;1.00;1.00;;;;;23.49;54.58;99360.47;4958486;28;46387;-58
2023/09/21 03:28:10;;;;;;;;;1.00;1.00;;;;;23.51;54.42;99370.91;4958486;28;45326;-55
2023/09/21 03:30:46;;;;;;;;;1.00;1.00;;;;;23.51;54.52;99373.56;4958536;28;45361;-53
2023/09/21 03:33:11;;;;;;;;;4.00;2.00;;;;;23.50;54.10;99350.72;4958687;28;45353;-55
2023/09/21 03:35:37;;;;;;;;;1.00;1.00;;;;;23.50;54.32;99359.47;4956943;28;47541;-55
2023/09/21 03:38:10;;;;;;;;;2.75;2.75;;;;;23.51;54.66;99362.97;4958708;28;45298;-57
2023/09/21 03:40:36;;;;;;;;;2.00;2.00;;;;;23.51;54.45;99357.69;4958374;28;45334;-57
2023/09/21 03:43:02;;;;;;;;;1.00;1.00;;;;;23.52;54.16;99362.81;4958757;28;45584;-56
2023/09/21 03:45:27;;;;;;;;;1.75;1.00;;;;;23.53;54.28;99361.03;4958123;28;46827;-58
2023/09/21 03:47:53;;;;;;;;;1.00;1.00;;;;;23.55;54.03;99359.06;4958216;28;45228;-56
2023/09/21 03:50:19;;;;;;;;;2.00;1.75;;;;;23.55;54.39;99354.63;4958335;28;45191;-59
2023/09/21 03:52:45;;;;;;;;;3.00;1.00;;;;;23.56;54.60;99350.16;4957205;28;45586;-59
2023/09/21 03:55:17;;;;;;;;;2.25;0.75;;;;;23.55;54.69;99349.34;4958076;28;45253;-56
2023/09/21 03:57:46;;;;;;;;;3.00;1.00;;;;;23.56;54.65;99351.00;4958125;28;45674;-56
2023/09/21 04:02:50;;;;;;;;;1.00;1.00;;;;;23.58;54.20;99354.34;4958133;28;45422;-58
2023/09/21 04:05:18;;;;;;;;;1.75;1.00;;;;;23.58;54.11;99351.69;4957988;28;45470;-58
2023/09/21 04:07:45;;;;;;;;;0.75;0.75;;;;;23.60;54.53;99346.25;4958003;28;45622;-57
2023/09/21 04:10:11;;;;;;;;;2.75;1.00;;;;;23.60;54.43;99346.25;4957689;28;45244;-55
2023/09/21 04:12:39;;;;;;;;;1.00;1.00;;;;;23.59;54.01;99355.16;4958476;28;45918;-56
2023/09/21 04:15:06;;;;;;;;;0.75;0.75;;;;;23.59;54.12;99342.75;4958169;28;46046;-52
2023/09/21 04:17:32;;;;;;;;;1.00;1.00;;;;;23.59;54.50;99350.69;4957785;28;45648;-56
2023/09/21 04:19:57;;;;;;;;;3.00;1.00;;;;;23.60;54.27;99362.13;4957747;28;45232;-52
2023/09/21 04:22:22;;;;;;;;;3.00;1.50;;;;;23.59;54.08;99355.16;4957453;28;52843;-52
2023/09/21 04:24:47;;;;;;;;;1.00;0.25;;;;;23.59;54.21;99349.88;4957141;28;59869;-52
2023/09/21 04:27:13;;;;;;;;;1.00;0.75;;;;;23.56;54.24;99337.78;4957649;28;45262;-53
2023/09/21 04:29:38;;;;;;;;;0.50;0.00;;;;;23.57;54.21;99330.66;4957679;28;45321;-53
2023/09/21 04:32:04;;;;;;;;;4.00;2.00;;;;;23.56;54.58;99334.28;4957608;28;50411;-56
2023/09/21 04:34:31;;;;;;;;;51.75;41.00;;;;;23.55;54.57;99324.69;4957330;28;45478;-55
2023/09/21 04:36:56;;;;;;;;;187.00;171.25;;;;;23.56;54.67;99329.00;4957165;28;45279;-54
2023/09/21 04:39:22;;;;;;;;;246.25;220.00;;;;;23.56;54.69;99329.00;4957484;28;45465;-57
2023/09/21 04:41:48;;;;;;;;;320.75;285.00;;;;;23.56;54.85;99315.78;4957383;28;45547;-57
2023/09/21 04:44:14;;;;;;;;;240.25;216.00;;;;;23.55;54.20;99322.03;4955862;28;48492;-58
2023/09/21 04:46:41;;;;;;;;;292.33;255.33;;;;;23.56;54.41;99318.41;4939700;28;45407;-53
2023/09/21 04:49:07;;;;;;;;;241.00;223.75;;;;;23.55;54.36;99314.94;4957574;28;45243;-52
2023/09/21 04:51:33;;;;;;;;;209.67;181.67;;;;;23.56;54.42;99307.84;4957590;28;45317;-57
2023/09/21 04:53:58;;;;;;;;;151.00;134.75;;;;;23.56;54.58;99298.13;4956978;28;46262;-55
2023/09/21 04:56:24;;;;;;;;;133.50;119.25;;;;;23.57;54.40;99293.66;4957103;28;45228;-59
2023/09/21 04:58:51;;;;;;;;;124.33;112.33;;;;;23.56;54.80;99289.31;4957311;28;45212;-58
2023/09/21 05:01:18;;;;;;;;;110.00;99.00;;;;;23.52;54.39;99286.13;4957562;28;45286;-56
2023/09/21 05:03:44;;;;;;;;;80.25;73.75;;;;;23.50;54.72;99277.50;4956903;28;46435;-56
2023/09/21 05:06:10;;;;;;;;;77.25;66.50;;;;;23.49;54.98;99280.31;4957427;28;45450;-55
2023/09/21 05:08:36;;;;;;;;;59.00;46.25;;;;;23.45;54.85;99270.00;4957565;28;45884;-59
2023/09/21 05:11:04;;;;;;;;;56.25;43.25;;;;;23.41;55.29;99268.63;4957319;28;45549;-56
2023/09/21 05:13:30;;;;;;;;;60.25;45.75;;;;;23.37;55.08;99274.34;4955689;28;45430;-56
2023/09/21 05:15:55;;;;;;;;;53.75;42.25;;;;;23.35;55.09;99263.09;4956147;28;64108;-54
2023/09/21 05:18:20;;;;;;;;;44.00;32.00;;;;;23.31;54.88;99271.28;4957124;28;45341;-55
2023/09/21 05:20:46;;;;;;;;;33.00;30.50;;;;;23.30;55.34;99276.72;4957176;28;45362;-57
2023/09/21 05:23:11;;;;;;;;;38.67;32.67;;;;;23.24;55.17;99266.69;4956130;28;64867;-49
2023/09/21 05:25:36;;;;;;;;;32.25;28.25;;;;;23.28;55.03;99268.91;4956389;28;61414;-57
2023/09/21 05:28:02;;;;;;;;;27.50;25.75;;;;;23.29;55.29;99269.78;4957009;28;45488;-57
2023/09/21 05:30:29;;;;;;;;;20.00;17.25;;;;;23.30;55.11;99271.44;4957143;28;45394;-53
2023/09/21 05:32:57;;;;;;;;;20.00;18.50;;;;;23.28;55.24;99273.38;4958810;28;45558;-56
2023/09/21 05:35:23;;;;;;;;;17.00;15.75;;;;;23.29;55.66;99275.06;4959932;28;45323;-53
2023/09/21 05:37:49;;;;;;;;;17.00;16.50;;;;;23.29;55.14;99277.69;4960265;28;45331;-49
2023/09/21 05:40:14;;;;;;;;;12.50;12.00;;;;;23.28;55.45;99276.03;4959104;28;45204;-54
2023/09/21 05:42:41;;;;;;;;;11.00;10.50;;;;;23.31;55.42;99288.97;4960250;28;45319;-52
2023/09/21 05:45:07;;;;;;;;;9.25;9.25;;;;;23.31;55.51;99275.75;4959959;28;45246;-51
2023/09/21 05:47:33;;;;;;;;;9.75;8.25;;;;;23.31;54.96;99284.50;4960150;28;45473;-49
2023/09/21 05:49:58;;;;;;;;;9.00;8.00;;;;;23.30;55.46;99280.19;4960265;28;45263;-49
2023/09/21 05:52:24;;;;;;;;;9.75;6.00;;;;;23.30;55.00;99285.47;4941662;28;67478;-50
2023/09/21 05:54:49;;;;;;;;;7.75;5.25;;;;;23.31;55.28;99292.44;4959914;28;45428;-58
2023/09/21 05:57:16;;;;;;;;;8.50;4.25;;;;;23.29;55.44;99286.44;4959960;28;45484;-54
2023/09/21 05:59:41;;;;;;;;;5.00;5.00;;;;;23.27;55.41;99291.03;4959931;28;45282;-57
2023/09/21 06:02:13;;;;;;;;;5.75;4.00;;;;;23.27;54.85;99303.44;4959604;28;47461;-58
2023/09/21 06:04:39;;;;;;;;;4.00;3.00;;;;;23.23;55.24;99289.66;4959810;28;45729;-57
2023/09/21 06:07:04;;;;;;;;;2.75;1.75;;;;;23.24;55.37;99303.72;4959904;28;45295;-58
2023/09/21 06:09:30;;;;;;;;;3.75;3.00;;;;;23.25;55.34;99308.03;4960088;28;45540;-57
2023/09/21 06:11:56;;;;;;;;;5.50;2.00;;;;;23.25;55.03;99306.22;4958228;28;46866;-56
2023/09/21 06:14:22;;;;;;;;;3.50;3.50;;;;;23.25;54.96;99315.94;4959610;28;45407;-60
2023/09/21 06:16:47;;;;;;;;;3.00;2.00;;;;;23.26;55.11;99313.16;4959661;28;45176;-57
2023/09/21 06:19:13;;;;;;;;;4.00;2.75;;;;;23.27;54.80;99303.44;4960121;28;45601;-57
2023/09/21 06:21:39;;;;;;;;;2.50;2.00;;;;;23.27;54.71;99319.28;4959369;28;47272;-60
2023/09/21 06:24:06;;;;;;;;;3.00;2.00;;;;;23.27;54.82;99314.00;4954230;28;45661;-58
2023/09/21 06:26:31;;;;;;;;;2.00;2.00;;;;;23.26;55.25;99318.44;4940288;28;45363;-55
2023/09/21 06:28:58;;;;;;;;;2.75;1.25;;;;;23.29;55.23;99322.63;4940405;28;45607;-51
2023/09/21 06:31:23;;;;;;;;;3.75;2.00;;;;;23.32;55.15;99317.03;4939976;28;46302;-56
2023/09/21 06:33:49;;;;;;;;;1.25;1.25;;;;;23.33;54.74;99317.91;4939929;28;47251;-56
2023/09/21 06:36:20;;;;;;;;;1.25;1.00;;;;;23.34;54.62;99315.09;4951362;28;45486;-56
2023/09/21 06:38:50;;;;;;;;;4.50;3.00;;;;;23.33;54.55;99324.00;4958236;28;45556;-52
2023/09/21 06:41:16;;;;;;;;;4.25;3.00;;;;;23.33;54.62;99318.72;4941529;28;45338;-56
2023/09/21 06:43:42;;;;;;;;;3.25;2.75;;;;;23.32;54.69;99311.75;4940017;28;45378;-55
2023/09/21 06:46:10;;;;;;;;;3.00;3.00;;;;;23.33;55.07;99328.47;4939667;28;45354;-57
2023/09/21 06:48:36;;;;;;;;;2.00;1.00;;;;;23.34;54.60;99333.59;4956931;28;45543;-57
2023/09/21 06:51:04;;;;;;;;;3.00;1.75;;;;;23.33;54.52;99334.59;4942911;28;45504;-53
2023/09/21 06:53:29;;;;;;;;;3.00;2.00;;;;;23.35;54.71;99342.41;4939599;28;45436;-57
2023/09/21 06:55:56;;;;;;;;;1.25;1.25;;;;;23.36;55.02;99338.78;4937927;28;45898;-52
2023/09/21 06:58:21;;;;;;;;;3.00;2.25;;;;;23.38;55.03;99342.94;4939624;28;45386;-53
2023/09/21 07:00:47;;;;;;;;;3.25;2.00;;;;;23.37;54.55;99349.19;4921386;28;47291;-50
2023/09/21 07:03:12;;;;;;;;;3.50;1.50;;;;;23.36;54.52;99344.88;4939608;28;45311;-52
2023/09/21 07:05:40;;;;;;;;;5.50;2.00;;;;;23.36;55.19;99331.66;4939189;28;45234;-58
2023/09/21 07:08:06;;;;;;;;;4.25;1.25;;;;;23.35;54.76;99340.56;4939672;28;45247;-54
2023/09/21 07:10:32;;;;;;;;;2.00;2.00;;;;;23.34;54.83;99330.97;4938622;28;46546;-56
2023/09/21 07:12:58;;;;;;;;;3.00;2.00;;;;;23.34;54.73;99330.16;4939135;28;45572;-54
2023/09/21 07:15:23;;;;;;;;;2.00;1.75;;;;;23.31;55.10;99321.50;4939168;28;45358;-57
2023/09/21 07:17:50;;;;;;;;;2.75;2.00;;;;;23.31;55.22;99337.38;4939228;28;45251;-57
2023/09/21 07:20:23;;;;;;;;;1.75;1.75;;;;;23.29;55.38;99333.22;4938708;28;47254;-55
2023/09/21 07:22:49;;;;;;;;;2.50;1.00;;;;;23.30;54.90;99332.25;4938724;28;45753;-53
2023/09/21 07:25:14;;;;;;;;;2.00;2.00;;;;;23.28;55.16;99332.34;4939275;28;45330;-51
2023/09/21 07:27:40;;;;;;;;;3.75;1.00;;;;;23.27;55.59;99329.88;4939254;28;45554;-47
2023/09/21 07:30:06;;;;;;;;;1.00;1.00;;;;;23.27;55.66;99319.28;4938720;28;45423;-57
2023/09/21 07:32:32;;;;;;;;;2.75;2.75;;;;;23.25;55.08;99310.66;4938590;28;45272;-52
2023/09/21 07:34:58;;;;;;;;;2.00;2.00;;;;;23.27;55.07;99303.44;4938320;28;45462;-52
2023/09/21 07:37:23;;;;;;;;;1.00;1.00;;;;;23.23;55.70;99297.59;4937502;28;45305;-55
2023/09/21 07:39:49;;;;;;;;;1.50;1.50;;;;;23.23;55.50;99296.75;4938174;28;46615;-58
2023/09/21 07:42:14;;;;;;;;;2.00;2.00;;;;;23.21;55.66;99301.34;4938530;28;45315;-55
2023/09/21 07:44:44;;;;;;;;;1.75;1.75;;;;;23.21;55.47;99298.69;4938250;28;45278;-54
2023/09/21 07:47:10;;;;;;;;;4.00;2.00;;;;;23.20;55.33;99289.94;4938425;28;45529;-55
2023/09/21 07:49:35;;;;;;;;;2.00;2.00;;;;;23.20;55.80;99286.47;4937922;28;45481;-58
2023/09/21 07:52:01;;;;;;;;;2.50;2.00;;;;;23.20;55.49;99286.47;4949005;28;45288;-54
2023/09/21 07:54:27;;;;;;;;;2.75;2.75;;;;;23.18;55.70;99289.22;4957247;28;45350;-52
2023/09/21 07:56:53;;;;;;;;;2.00;1.00;;;;;23.17;55.84;99288.38;4937404;28;45272;-50
2023/09/21 07:59:18;;;;;;;;;2.00;2.00;;;;;23.16;55.81;99289.38;4937858;28;50893;-48
2023/09/21 08:01:44;;;;;;;;;4.00;2.00;;;;;23.19;55.67;99290.06;4937984;28;45264;-54
2023/09/21 08:04:10;;;;;;;;;2.50;1.50;;;;;23.17;55.32;99287.53;4938166;28;45395;-51
2023/09/21 08:06:35;;;;;;;;;1.00;1.00;;;;;23.18;55.46;99289.22;4937962;28;45241;-53
2023/09/21 08:09:01;;;;;;;;;1.00;1.00;;;;;23.17;55.54;99288.38;4937826;28;45489;-54
2023/09/21 08:11:26;;;;;;;;;0.75;0.75;;;;;23.15;55.50;99279.75;4937499;28;45300;-56
2023/09/21 08:13:51;;;;;;;;;1.25;1.25;;;;;23.16;55.89;99281.44;4920668;28;45355;-54
2023/09/21 08:16:17;;;;;;;;;1.00;1.00;;;;;23.17;55.99;99285.75;4938225;28;45616;-54
2023/09/21 08:18:42;;;;;;;;;2.00;2.00;;;;;23.15;55.80;99279.75;4937825;28;46746;-52
2023/09/21 08:21:10;;;;;;;;;3.50;2.00;;;;;23.15;55.93;99274.47;4938050;28;45777;-54
2023/09/21 08:23:37;;;;;;;;;3.25;2.00;;;;;23.18;55.33;99283.94;4920178;28;45446;-56
2023/09/21 08:26:03;;;;;;;;;2.00;2.00;;;;;23.16;55.56;99270.88;4938456;28;45482;-53
2023/09/21 08:28:29;;;;;;;;;3.00;2.00;;;;;23.14;55.21;99267.53;4937771;28;46201;-55
2023/09/21 08:30:55;;;;;;;;;2.00;2.00;;;;;23.15;55.41;99278.94;4937886;28;45348;-51
2023/09/21 08:33:22;;;;;;;;;1.00;1.00;;;;;23.12;55.67;99266.81;4936790;28;45474;-55
2023/09/21 11:49:00;;;;;;;;;7.25;5.50;;;;;23.49;53.30;99238.00;5986157;23;46461;-53
2023/09/21 11:51:28;;;;;;;;;5.00;4.25;;;;;23.47;53.30;99220.47;4937572;28;50960;-54
2023/09/21 11:53:58;;;;;;;;;5.00;5.00;;;;;23.45;52.90;99197.78;4937366;28;45407;-54
2023/09/21 11:56:24;;;;;;;;;3.75;3.75;;;;;23.35;53.18;99184.59;4935632;28;45431;-52
2023/09/21 11:58:49;;;;;;;;;5.00;4.00;;;;;23.36;52.88;99201.31;4938455;28;45672;-53
2023/09/21 12:01:22;;;;;;;;;3.00;3.00;;;;;23.32;52.81;99200.75;4937615;28;46249;-54
2023/09/21 12:03:51;;;;;;;;;5.25;2.50;;;;;23.31;52.94;99225.53;4933795;28;45866;-56
2023/09/21 12:06:16;;;;;;;;;3.00;3.00;;;;;23.31;52.70;99229.00;4937770;28;45333;-58
2023/09/21 12:08:42;;;;;;;;;4.00;3.50;;;;;23.31;52.72;99229.00;4937709;28;45433;-56
2023/09/21 12:11:07;;;;;;;;;4.00;4.00;;;;;23.32;52.87;99258.91;4937089;28;64789;-53
2023/09/21 12:13:35;;;;;;;;;3.00;3.00;;;;;23.33;52.79;99270.31;4937653;28;45398;-54
2023/09/21 12:16:02;;;;;;;;;3.00;2.00;;;;;23.32;52.80;99277.41;4937626;28;45255;-54
2023/09/21 12:18:28;;;;;;;;;2.75;2.75;;;;;23.34;52.76;99282.56;4937867;28;45505;-54
2023/09/21 12:20:56;;;;;;;;;2.00;2.00;;;;;23.35;52.16;99274.47;4937337;28;46562;-50
2023/09/21 12:23:23;;;;;;;;;1.25;1.00;;;;;23.35;52.33;99257.78;4935238;28;45719;-53
2023/09/21 12:25:48;;;;;;;;;1.50;1.00;;;;;23.33;52.21;99254.47;4937829;28;45831;-53
2023/09/21 12:28:14;;;;;;;;;2.75;2.50;;;;;23.31;51.85;99258.06;4938499;28;45361;-49
2023/09/21 12:30:42;;;;;;;;;1.00;1.00;;;;;23.31;51.74;99257.25;4938226;28;46560;-52
2023/09/21 12:33:08;;;;;;;;;2.25;1.75;;;;;23.30;52.14;99255.59;4938176;28;45797;-57
2023/09/21 12:35:35;;;;;;;;;1.00;1.00;;;;;23.28;51.52;99249.59;4938244;28;45339;-53
2023/09/21 12:38:00;;;;;;;;;1.00;1.00;;;;;23.28;51.79;99252.25;4938260;28;45441;-54
2023/09/21 12:40:26;;;;;;;;;2.75;1.00;;;;;23.27;51.49;99267.25;4936455;28;47043;-52
2023/09/21 12:42:52;;;;;;;;;1.00;1.00;;;;;23.27;52.05;99272.53;4938231;28;45346;-54
2023/09/21 12:45:17;;;;;;;;;1.25;1.00;;;;;23.26;51.91;99268.22;4937914;28;45308;-56
2023/09/21 12:47:46;;;;;;;;;1.50;1.00;;;;;23.30;51.83;99266.16;4937927;28;45674;-53
2023/09/21 12:50:13;;;;;;;;;1.75;1.00;;;;;23.29;51.87;99246.81;4936739;28;45403;-53
2023/09/21 12:52:45;;;;;;;;;1.00;0.00;;;;;23.29;51.34;99232.75;4920553;28;45404;-52
2023/09/21 12:55:11;;;;;;;;;0.00;0.00;;;;;23.27;50.98;99211.75;4936198;28;45744;-55
2023/09/21 12:57:38;;;;;;;;;1.25;1.00;;;;;23.26;51.65;99222.47;4938226;28;45573;-55
2023/09/21 13:00:17;;;;;;;;;2.00;1.00;;;;;23.26;51.51;99227.75;4920489;28;46222;-52
2023/09/21 13:02:43;;;;;;;;;0.00;0.00;;;;;23.24;51.07;99234.97;4937754;28;45266;-51
2023/09/21 13:05:12;;;;;;;;;1.00;1.00;;;;;23.21;51.09;99232.63;4937293;28;45383;-49
2023/09/21 13:07:37;;;;;;;;;0.25;0.25;;;;;23.23;51.06;99234.16;4938050;28;45223;-53
2023/09/21 13:10:03;;;;;;;;;1.00;0.75;;;;;23.26;51.30;99251.53;4936395;28;45850;-52
2023/09/21 13:12:29;;;;;;;;;0.25;0.25;;;;;23.27;51.00;99267.25;4937535;28;45373;-52
2023/09/21 13:14:54;;;;;;;;;2.50;0.50;;;;;23.26;51.05;99264.75;4938044;28;45327;-55
2023/09/21 13:17:23;;;;;;;;;2.00;1.00;;;;;23.26;51.44;99270.88;4937840;28;45349;-52
2023/09/21 13:19:49;;;;;;;;;0.25;0.25;;;;;23.25;51.51;99269.22;4937426;28;46330;-51
2023/09/21 13:22:17;;;;;;;;;1.00;0.00;;;;;23.26;51.37;99277.97;4937450;28;45276;-53
2023/09/21 13:24:46;;;;;;;;;1.00;1.00;;;;;23.25;50.85;99268.38;4920325;28;45499;-53
2023/09/21 13:27:15;;;;;;;;;2.25;0.75;;;;;23.26;50.99;99267.41;4937864;28;45393;-53
2023/09/21 13:29:41;;;;;;;;;1.50;1.00;;;;;23.24;51.07;99264.06;4937521;28;46410;-54
2023/09/21 13:32:08;;;;;;;;;0.25;0.25;;;;;23.24;51.13;99261.41;4936096;28;45395;-53
2023/09/21 13:34:33;;;;;;;;;1.00;1.00;;;;;23.24;51.29;99256.97;4936325;28;45340;-51
2023/09/21 13:36:59;;;;;;;;;1.00;1.00;;;;;23.23;50.59;99257.09;4937708;28;45412;-52
2023/09/21 13:39:26;;;;;;;;;0.00;0.00;;;;;23.24;51.27;99256.97;4937641;28;45827;-51
2023/09/21 13:41:59;;;;;;;;;0.25;0.00;;;;;23.25;51.17;99249.88;4937354;28;45741;-53
2023/09/21 13:44:26;;;;;;;;;2.00;0.50;;;;;23.24;51.22;99248.19;4937645;28;45290;-54
2023/09/21 13:46:52;;;;;;;;;0.00;0.00;;;;;23.25;50.71;99252.50;4920524;28;45421;-51
2023/09/21 13:49:18;;;;;;;;;0.00;0.00;;;;;23.25;50.72;99257.81;4936918;28;47007;-54
2023/09/21 13:51:46;;;;;;;;;0.50;0.00;;;;;23.26;50.73;99264.75;4937656;28;45325;-53
2023/09/21 13:54:12;;;;;;;;;0.25;0.25;;;;;23.25;51.18;99242.78;4940696;28;45333;-50
2023/09/21 13:56:38;;;;;;;;;0.00;0.00;;;;;23.23;50.62;99225.38;4940729;28;45387;-53
2023/09/21 13:59:04;;;;;;;;;1.00;1.00;;;;;23.24;50.42;99217.34;4940050;28;46200;-54
2023/09/21 14:01:29;;;;;;;;;1.00;0.00;;;;;23.21;50.48;99211.47;4940465;28;45723;-52
2023/09/21 14:03:55;;;;;;;;;0.00;0.00;;;;;23.21;50.96;99214.13;4940688;28;45535;-53
2023/09/21 14:06:24;;;;;;;;;0.25;0.25;;;;;23.22;51.02;99263.34;4940741;28;45317;-53
2023/09/21 14:08:50;;;;;;;;;1.00;0.00;;;;;23.23;51.09;99270.31;4940412;28;45223;-51
2023/09/21 14:11:16;;;;;;;;;0.00;0.00;;;;;23.22;50.92;99280.06;4940330;28;45310;-54
2023/09/21 14:13:41;;;;;;;;;0.00;0.00;;;;;23.25;50.72;99263.94;4940409;28;45303;-54
2023/09/21 14:16:12;;;;;;;;;2.00;1.00;;;;;23.25;50.72;99260.44;4940505;28;45237;-57
2023/09/21 14:18:38;;;;;;;;;0.00;0.00;;;;;23.28;50.65;99274.22;4938878;28;46662;-51
2023/09/21 14:21:05;;;;;;;;;0.00;0.00;;;;;23.28;50.97;99268.09;4940141;28;45587;-54
2023/09/21 14:23:31;;;;;;;;;0.75;0.00;;;;;23.28;50.43;99273.38;4940465;28;45323;-53
2023/09/21 14:25:57;;;;;;;;;0.00;0.00;;;;;23.28;50.99;99274.22;4940661;28;45250;-51
2023/09/21 14:28:23;;;;;;;;;2.00;0.00;;;;;23.29;50.30;99286.44;4938499;28;46558;-53
2023/09/21 14:30:48;;;;;;;;;2.00;0.25;;;;;23.31;51.00;99288.97;4939898;28;45416;-51
2023/09/21 14:33:16;;;;;;;;;1.00;0.00;;;;;23.32;50.60;99258.91;4938951;28;45361;-52
2023/09/21 14:35:42;;;;;;;;;0.00;0.00;;;;;23.30;50.55;99255.59;4939913;28;49085;-57
2023/09/21 14:38:08;;;;;;;;;0.50;0.00;;;;;23.31;50.53;99255.44;4939996;28;46101;-57
2023/09/21 14:40:34;;;;;;;;;1.00;1.00;;;;;23.31;50.24;99257.25;4938423;28;45409;-54
2023/09/21 14:43:00;;;;;;;;;0.00;0.00;;;;;23.31;50.51;99257.25;4940391;28;45308;-54
2023/09/21 14:45:25;;;;;;;;;0.00;0.00;;;;;23.30;50.10;99260.88;4939901;28;45248;-54
2023/09/21 14:47:53;;;;;;;;;0.00;0.00;;;;;23.32;49.96;99261.53;4939715;28;45284;-55